sensor_id;sensor_type;location;lat;lon;timestamp;P1;durP1;ratioP1;P2;durP2;ratioP2
12165;SDS011;6146;48.128;11.476;2023-12-20T00:00:16;2.67;;;2.47;;
12165;SDS011;6146;48.128;11.476;2023-12-20T00:02:42;2.70;;;2.50;;
12165;SDS011;6146;48.128;11.476;2023-12-20T00:05:12;3.17;;;2.60;;
12165;SDS011;6146;48.128;11.476;2023-12-20T00:07:38;2.87;;;2.33;;
12165;SDS011;6146;48.128;11.476;2023-12-20T00:10:04;2.60;;;2.40;;
12165;SDS011;6146;48.128;11.476;2023-12-20T00:12:29;2.80;;;2.50;;
12165;SDS011;6146;48.128;11.476;2023-12-20T00:14:55;2.73;;;2.10;;
12165;SDS011;6146;48.128;11.476;2023-12-20T00:17:21;2.97;;;2.30;;
12165;SDS011;6146;48.128;11.476;2023-12-20T00:19:46;2.87;;;2.50;;
12165;SDS011;6146;48.128;11.476;2023-12-20T00:22:12;4.23;;;2.50;;
12165;SDS011;6146;48.128;11.476;2023-12-20T00:24:37;3.10;;;2.10;;
12165;SDS011;6146;48.128;11.476;2023-12-20T00:27:03;2.70;;;2.20;;
12165;SDS011;6146;48.128;11.476;2023-12-20T00:29:28;4.10;;;2.33;;
12165;SDS011;6146;48.128;11.476;2023-12-20T00:31:54;2.30;;;1.97;;
12165;SDS011;6146;48.128;11.476;2023-12-20T00:34:20;2.90;;;2.17;;
12165;SDS011;6146;48.128;11.476;2023-12-20T00:36:45;3.53;;;2.50;;
12165;SDS011;6146;48.128;11.476;2023-12-20T00:39:11;4.00;;;3.20;;
12165;SDS011;6146;48.128;11.476;2023-12-20T00:41:36;4.37;;;2.90;;
12165;SDS011;6146;48.128;11.476;2023-12-20T00:44:02;2.63;;;2.23;;
12165;SDS011;6146;48.128;11.476;2023-12-20T00:46:27;2.20;;;1.70;;
12165;SDS011;6146;48.128;11.476;2023-12-20T00:48:53;2.67;;;2.00;;
12165;SDS011;6146;48.128;11.476;2023-12-20T00:51:19;3.47;;;2.00;;
12165;SDS011;6146;48.128;11.476;2023-12-20T00:53:44;2.00;;;1.70;;
12165;SDS011;6146;48.128;11.476;2023-12-20T00:56:11;2.10;;;1.90;;
12165;SDS011;6146;48.128;11.476;2023-12-20T00:58:36;1.80;;;1.60;;
12165;SDS011;6146;48.128;11.476;2023-12-20T01:01:02;2.43;;;1.70;;
12165;SDS011;6146;48.128;11.476;2023-12-20T01:03:29;3.60;;;2.00;;
12165;SDS011;6146;48.128;11.476;2023-12-20T01:05:54;1.90;;;1.70;;
12165;SDS011;6146;48.128;11.476;2023-12-20T01:08:20;2.37;;;2.00;;
12165;SDS011;6146;48.128;11.476;2023-12-20T01:10:45;2.13;;;1.83;;
12165;SDS011;6146;48.128;11.476;2023-12-20T01:13:11;3.43;;;1.80;;
12165;SDS011;6146;48.128;11.476;2023-12-20T01:15:37;1.90;;;1.70;;
12165;SDS011;6146;48.128;11.476;2023-12-20T01:18:03;1.90;;;1.70;;
12165;SDS011;6146;48.128;11.476;2023-12-20T01:20:28;1.90;;;1.73;;
12165;SDS011;6146;48.128;11.476;2023-12-20T01:22:54;2.27;;;2.03;;
12165;SDS011;6146;48.128;11.476;2023-12-20T01:25:19;1.60;;;1.50;;
12165;SDS011;6146;48.128;11.476;2023-12-20T01:27:45;1.80;;;1.70;;
12165;SDS011;6146;48.128;11.476;2023-12-20T01:30:10;1.70;;;1.60;;
12165;SDS011;6146;48.128;11.476;2023-12-20T01:32:36;3.13;;;1.80;;
12165;SDS011;6146;48.128;11.476;2023-12-20T01:35:02;2.07;;;1.60;;
12165;SDS011;6146;48.128;11.476;2023-12-20T01:37:27;1.60;;;1.50;;
12165;SDS011;6146;48.128;11.476;2023-12-20T01:39:54;1.97;;;1.50;;
12165;SDS011;6146;48.128;11.476;2023-12-20T01:42:19;2.37;;;1.70;;
12165;SDS011;6146;48.128;11.476;2023-12-20T01:44:45;2.10;;;1.70;;
12165;SDS011;6146;48.128;11.476;2023-12-20T01:47:10;2.07;;;1.63;;
12165;SDS011;6146;48.128;11.476;2023-12-20T01:49:37;1.63;;;1.50;;
12165;SDS011;6146;48.128;11.476;2023-12-20T01:52:02;2.00;;;1.80;;
12165;SDS011;6146;48.128;11.476;2023-12-20T01:54:28;2.13;;;1.73;;
12165;SDS011;6146;48.128;11.476;2023-12-20T01:56:55;2.50;;;1.50;;
12165;SDS011;6146;48.128;11.476;2023-12-20T01:59:20;1.57;;;1.43;;
12165;SDS011;6146;48.128;11.476;2023-12-20T02:01:47;1.93;;;1.40;;
12165;SDS011;6146;48.128;11.476;2023-12-20T02:04:12;1.50;;;1.40;;
12165;SDS011;6146;48.128;11.476;2023-12-20T02:06:38;1.60;;;1.50;;
12165;SDS011;6146;48.128;11.476;2023-12-20T02:09:05;1.60;;;1.50;;
12165;SDS011;6146;48.128;11.476;2023-12-20T02:11:32;1.50;;;1.40;;
12165;SDS011;6146;48.128;11.476;2023-12-20T02:13:58;2.43;;;1.30;;
12165;SDS011;6146;48.128;11.476;2023-12-20T02:16:24;1.77;;;1.40;;
12165;SDS011;6146;48.128;11.476;2023-12-20T02:18:49;1.20;;;1.10;;
12165;SDS011;6146;48.128;11.476;2023-12-20T02:21:15;1.40;;;1.20;;
12165;SDS011;6146;48.128;11.476;2023-12-20T02:23:40;1.00;;;0.90;;
12165;SDS011;6146;48.128;11.476;2023-12-20T02:26:06;1.07;;;1.03;;
12165;SDS011;6146;48.128;11.476;2023-12-20T02:28:32;1.40;;;1.30;;
12165;SDS011;6146;48.128;11.476;2023-12-20T02:30:58;1.00;;;1.00;;
12165;SDS011;6146;48.128;11.476;2023-12-20T02:33:24;1.10;;;1.00;;
12165;SDS011;6146;48.128;11.476;2023-12-20T02:35:49;1.00;;;1.00;;
12165;SDS011;6146;48.128;11.476;2023-12-20T02:38:15;1.13;;;0.97;;
12165;SDS011;6146;48.128;11.476;2023-12-20T02:40:40;1.73;;;0.90;;
12165;SDS011;6146;48.128;11.476;2023-12-20T02:43:06;1.07;;;1.00;;
12165;SDS011;6146;48.128;11.476;2023-12-20T02:45:31;1.03;;;1.00;;
12165;SDS011;6146;48.128;11.476;2023-12-20T02:47:57;1.30;;;1.20;;
12165;SDS011;6146;48.128;11.476;2023-12-20T02:50:23;1.93;;;1.00;;
12165;SDS011;6146;48.128;11.476;2023-12-20T02:52:48;1.10;;;1.00;;
12165;SDS011;6146;48.128;11.476;2023-12-20T02:55:14;1.90;;;1.00;;
12165;SDS011;6146;48.128;11.476;2023-12-20T02:57:39;1.20;;;1.00;;
12165;SDS011;6146;48.128;11.476;2023-12-20T03:00:08;1.40;;;1.20;;
12165;SDS011;6146;48.128;11.476;2023-12-20T03:02:34;0.80;;;0.80;;
12165;SDS011;6146;48.128;11.476;2023-12-20T03:05:00;1.23;;;1.10;;
12165;SDS011;6146;48.128;11.476;2023-12-20T03:07:26;1.00;;;0.90;;
12165;SDS011;6146;48.128;11.476;2023-12-20T03:09:52;0.80;;;0.80;;
12165;SDS011;6146;48.128;11.476;2023-12-20T03:12:17;1.10;;;1.00;;
12165;SDS011;6146;48.128;11.476;2023-12-20T03:14:43;1.20;;;1.10;;
12165;SDS011;6146;48.128;11.476;2023-12-20T03:17:09;0.90;;;0.90;;
12165;SDS011;6146;48.128;11.476;2023-12-20T03:19:35;0.97;;;0.87;;
12165;SDS011;6146;48.128;11.476;2023-12-20T03:22:00;1.20;;;1.10;;
12165;SDS011;6146;48.128;11.476;2023-12-20T03:24:26;1.00;;;0.90;;
12165;SDS011;6146;48.128;11.476;2023-12-20T03:26:52;0.80;;;0.80;;
12165;SDS011;6146;48.128;11.476;2023-12-20T03:29:18;2.23;;;1.10;;
12165;SDS011;6146;48.128;11.476;2023-12-20T03:31:43;1.20;;;1.10;;
12165;SDS011;6146;48.128;11.476;2023-12-20T03:34:09;0.80;;;0.80;;
12165;SDS011;6146;48.128;11.476;2023-12-20T03:36:35;0.97;;;0.80;;
12165;SDS011;6146;48.128;11.476;2023-12-20T03:39:01;1.20;;;1.10;;
12165;SDS011;6146;48.128;11.476;2023-12-20T03:41:26;1.03;;;0.93;;
12165;SDS011;6146;48.128;11.476;2023-12-20T03:43:52;0.90;;;0.90;;
12165;SDS011;6146;48.128;11.476;2023-12-20T03:46:17;1.00;;;0.90;;
12165;SDS011;6146;48.128;11.476;2023-12-20T03:48:43;1.27;;;1.00;;
12165;SDS011;6146;48.128;11.476;2023-12-20T03:51:08;1.20;;;1.00;;
12165;SDS011;6146;48.128;11.476;2023-12-20T03:53:34;1.40;;;1.20;;
12165;SDS011;6146;48.128;11.476;2023-12-20T03:55:59;1.13;;;1.03;;
12165;SDS011;6146;48.128;11.476;2023-12-20T03:58:25;1.17;;;0.97;;
12165;SDS011;6146;48.128;11.476;2023-12-20T04:00:50;0.80;;;0.80;;
12165;SDS011;6146;48.128;11.476;2023-12-20T04:03:16;1.23;;;0.80;;
12165;SDS011;6146;48.128;11.476;2023-12-20T04:05:41;0.70;;;0.70;;
12165;SDS011;6146;48.128;11.476;2023-12-20T04:08:07;1.30;;;1.00;;
12165;SDS011;6146;48.128;11.476;2023-12-20T04:10:34;1.10;;;1.00;;
12165;SDS011;6146;48.128;11.476;2023-12-20T04:12:59;1.27;;;1.10;;
12165;SDS011;6146;48.128;11.476;2023-12-20T04:15:25;0.80;;;0.80;;
12165;SDS011;6146;48.128;11.476;2023-12-20T04:17:50;1.00;;;1.00;;
12165;SDS011;6146;48.128;11.476;2023-12-20T04:20:16;1.47;;;1.10;;
12165;SDS011;6146;48.128;11.476;2023-12-20T04:22:41;1.43;;;1.10;;
12165;SDS011;6146;48.128;11.476;2023-12-20T04:25:07;1.00;;;1.00;;
12165;SDS011;6146;48.128;11.476;2023-12-20T04:27:33;1.10;;;1.00;;
12165;SDS011;6146;48.128;11.476;2023-12-20T04:29:59;1.40;;;1.30;;
12165;SDS011;6146;48.128;11.476;2023-12-20T04:32:24;1.23;;;1.10;;
12165;SDS011;6146;48.128;11.476;2023-12-20T04:34:50;1.20;;;1.10;;
12165;SDS011;6146;48.128;11.476;2023-12-20T04:37:15;1.40;;;1.30;;
12165;SDS011;6146;48.128;11.476;2023-12-20T04:39:41;1.17;;;1.07;;
12165;SDS011;6146;48.128;11.476;2023-12-20T04:42:07;1.60;;;1.17;;
12165;SDS011;6146;48.128;11.476;2023-12-20T04:44:33;1.50;;;1.40;;
12165;SDS011;6146;48.128;11.476;2023-12-20T04:46:59;1.50;;;1.40;;
12165;SDS011;6146;48.128;11.476;2023-12-20T04:49:25;1.50;;;1.40;;
12165;SDS011;6146;48.128;11.476;2023-12-20T04:51:50;1.43;;;1.33;;
12165;SDS011;6146;48.128;11.476;2023-12-20T04:54:16;1.77;;;1.30;;
12165;SDS011;6146;48.128;11.476;2023-12-20T04:56:41;1.40;;;1.30;;
12165;SDS011;6146;48.128;11.476;2023-12-20T04:59:07;1.47;;;1.30;;
12165;SDS011;6146;48.128;11.476;2023-12-20T05:01:32;2.03;;;1.77;;
12165;SDS011;6146;48.128;11.476;2023-12-20T05:03:58;1.80;;;1.70;;
12165;SDS011;6146;48.128;11.476;2023-12-20T05:06:24;2.13;;;1.93;;
12165;SDS011;6146;48.128;11.476;2023-12-20T05:08:49;2.30;;;1.90;;
12165;SDS011;6146;48.128;11.476;2023-12-20T05:11:15;3.53;;;2.17;;
12165;SDS011;6146;48.128;11.476;2023-12-20T05:13:41;2.50;;;1.90;;
12165;SDS011;6146;48.128;11.476;2023-12-20T05:16:07;2.20;;;2.00;;
12165;SDS011;6146;48.128;11.476;2023-12-20T05:18:34;3.20;;;2.90;;
12165;SDS011;6146;48.128;11.476;2023-12-20T05:20:59;2.67;;;2.23;;
12165;SDS011;6146;48.128;11.476;2023-12-20T05:23:25;2.37;;;2.17;;
12165;SDS011;6146;48.128;11.476;2023-12-20T05:25:50;2.93;;;2.07;;
12165;SDS011;6146;48.128;11.476;2023-12-20T05:28:16;3.00;;;2.63;;
12165;SDS011;6146;48.128;11.476;2023-12-20T05:30:42;2.80;;;2.50;;
12165;SDS011;6146;48.128;11.476;2023-12-20T05:33:08;2.90;;;2.47;;
12165;SDS011;6146;48.128;11.476;2023-12-20T05:35:34;3.30;;;2.53;;
12165;SDS011;6146;48.128;11.476;2023-12-20T05:37:59;2.83;;;2.53;;
12165;SDS011;6146;48.128;11.476;2023-12-20T05:40:25;2.77;;;2.47;;
12165;SDS011;6146;48.128;11.476;2023-12-20T05:42:51;2.37;;;2.00;;
12165;SDS011;6146;48.128;11.476;2023-12-20T05:45:16;2.60;;;2.03;;
12165;SDS011;6146;48.128;11.476;2023-12-20T05:47:42;2.17;;;2.03;;
12165;SDS011;6146;48.128;11.476;2023-12-20T05:50:07;2.10;;;2.00;;
12165;SDS011;6146;48.128;11.476;2023-12-20T05:52:34;2.87;;;2.20;;
12165;SDS011;6146;48.128;11.476;2023-12-20T05:54:59;2.27;;;2.07;;
12165;SDS011;6146;48.128;11.476;2023-12-20T05:57:26;2.60;;;2.20;;
12165;SDS011;6146;48.128;11.476;2023-12-20T05:59:52;2.20;;;2.00;;
12165;SDS011;6146;48.128;11.476;2023-12-20T06:02:18;2.53;;;2.17;;
12165;SDS011;6146;48.128;11.476;2023-12-20T06:04:43;2.40;;;2.10;;
12165;SDS011;6146;48.128;11.476;2023-12-20T06:07:12;2.80;;;1.90;;
12165;SDS011;6146;48.128;11.476;2023-12-20T06:09:38;2.30;;;2.10;;
12165;SDS011;6146;48.128;11.476;2023-12-20T06:12:03;3.50;;;2.50;;
12165;SDS011;6146;48.128;11.476;2023-12-20T06:14:29;2.60;;;2.40;;
12165;SDS011;6146;48.128;11.476;2023-12-20T06:16:55;4.40;;;2.33;;
12165;SDS011;6146;48.128;11.476;2023-12-20T06:19:21;2.57;;;2.37;;
12165;SDS011;6146;48.128;11.476;2023-12-20T06:21:47;2.80;;;2.10;;
12165;SDS011;6146;48.128;11.476;2023-12-20T06:24:13;4.63;;;2.60;;
12165;SDS011;6146;48.128;11.476;2023-12-20T06:26:38;3.07;;;2.63;;
12165;SDS011;6146;48.128;11.476;2023-12-20T06:29:04;3.67;;;2.17;;
12165;SDS011;6146;48.128;11.476;2023-12-20T06:31:29;2.53;;;2.20;;
12165;SDS011;6146;48.128;11.476;2023-12-20T06:33:57;3.40;;;2.50;;
12165;SDS011;6146;48.128;11.476;2023-12-20T06:36:24;3.93;;;2.37;;
12165;SDS011;6146;48.128;11.476;2023-12-20T06:38:50;2.53;;;2.30;;
12165;SDS011;6146;48.128;11.476;2023-12-20T06:41:16;3.10;;;2.30;;
12165;SDS011;6146;48.128;11.476;2023-12-20T06:43:42;3.33;;;2.60;;
12165;SDS011;6146;48.128;11.476;2023-12-20T06:46:08;3.93;;;2.20;;
12165;SDS011;6146;48.128;11.476;2023-12-20T06:48:33;4.03;;;2.20;;
12165;SDS011;6146;48.128;11.476;2023-12-20T06:51:00;2.53;;;2.20;;
12165;SDS011;6146;48.128;11.476;2023-12-20T06:53:29;3.07;;;2.40;;
12165;SDS011;6146;48.128;11.476;2023-12-20T06:55:55;3.60;;;2.63;;
12165;SDS011;6146;48.128;11.476;2023-12-20T06:58:24;3.33;;;2.40;;
12165;SDS011;6146;48.128;11.476;2023-12-20T07:00:50;2.93;;;2.17;;
12165;SDS011;6146;48.128;11.476;2023-12-20T07:03:16;2.67;;;2.10;;
12165;SDS011;6146;48.128;11.476;2023-12-20T07:05:42;1.90;;;1.60;;
12165;SDS011;6146;48.128;11.476;2023-12-20T07:08:08;3.10;;;1.90;;
12165;SDS011;6146;48.128;11.476;2023-12-20T07:10:34;1.87;;;1.70;;
12165;SDS011;6146;48.128;11.476;2023-12-20T07:12:59;1.40;;;1.30;;
12165;SDS011;6146;48.128;11.476;2023-12-20T07:15:25;1.30;;;1.20;;
12165;SDS011;6146;48.128;11.476;2023-12-20T07:17:51;1.50;;;1.40;;
12165;SDS011;6146;48.128;11.476;2023-12-20T07:20:17;2.13;;;1.20;;
12165;SDS011;6146;48.128;11.476;2023-12-20T07:22:42;1.20;;;1.10;;
12165;SDS011;6146;48.128;11.476;2023-12-20T07:25:08;1.23;;;1.07;;
12165;SDS011;6146;48.128;11.476;2023-12-20T07:27:34;1.30;;;1.20;;
12165;SDS011;6146;48.128;11.476;2023-12-20T07:29:59;2.00;;;1.20;;
12165;SDS011;6146;48.128;11.476;2023-12-20T07:32:25;1.20;;;1.10;;
12165;SDS011;6146;48.128;11.476;2023-12-20T07:34:50;2.13;;;1.20;;
12165;SDS011;6146;48.128;11.476;2023-12-20T07:37:16;1.43;;;1.30;;
12165;SDS011;6146;48.128;11.476;2023-12-20T07:39:41;1.43;;;1.33;;
12165;SDS011;6146;48.128;11.476;2023-12-20T07:42:07;0.83;;;0.83;;
12165;SDS011;6146;48.128;11.476;2023-12-20T07:44:34;1.40;;;1.30;;
12165;SDS011;6146;48.128;11.476;2023-12-20T07:47:00;1.40;;;1.30;;
12165;SDS011;6146;48.128;11.476;2023-12-20T07:49:26;0.87;;;0.87;;
12165;SDS011;6146;48.128;11.476;2023-12-20T07:51:52;1.20;;;1.10;;
12165;SDS011;6146;48.128;11.476;2023-12-20T07:54:17;2.80;;;1.30;;
12165;SDS011;6146;48.128;11.476;2023-12-20T07:56:43;1.20;;;1.10;;
12165;SDS011;6146;48.128;11.476;2023-12-20T07:59:09;1.43;;;1.30;;
12165;SDS011;6146;48.128;11.476;2023-12-20T08:01:35;1.10;;;1.00;;
12165;SDS011;6146;48.128;11.476;2023-12-20T08:04:01;1.30;;;1.20;;
12165;SDS011;6146;48.128;11.476;2023-12-20T08:06:26;1.77;;;1.30;;
12165;SDS011;6146;48.128;11.476;2023-12-20T08:08:52;3.23;;;1.10;;
12165;SDS011;6146;48.128;11.476;2023-12-20T08:11:17;2.37;;;1.10;;
12165;SDS011;6146;48.128;11.476;2023-12-20T08:13:43;1.33;;;1.17;;
12165;SDS011;6146;48.128;11.476;2023-12-20T08:16:09;1.20;;;1.10;;
12165;SDS011;6146;48.128;11.476;2023-12-20T08:18:34;0.87;;;0.87;;
12165;SDS011;6146;48.128;11.476;2023-12-20T08:21:00;0.90;;;0.90;;
12165;SDS011;6146;48.128;11.476;2023-12-20T08:23:26;1.40;;;1.13;;
12165;SDS011;6146;48.128;11.476;2023-12-20T08:25:52;2.93;;;1.23;;
12165;SDS011;6146;48.128;11.476;2023-12-20T08:28:17;1.23;;;1.13;;
12165;SDS011;6146;48.128;11.476;2023-12-20T08:30:43;0.90;;;0.90;;
12165;SDS011;6146;48.128;11.476;2023-12-20T08:33:09;1.53;;;1.20;;
12165;SDS011;6146;48.128;11.476;2023-12-20T08:35:37;1.10;;;1.00;;
12165;SDS011;6146;48.128;11.476;2023-12-20T08:38:06;1.37;;;1.27;;
12165;SDS011;6146;48.128;11.476;2023-12-20T08:40:32;1.13;;;1.03;;
12165;SDS011;6146;48.128;11.476;2023-12-20T08:42:57;1.17;;;1.00;;
12165;SDS011;6146;48.128;11.476;2023-12-20T08:45:23;1.13;;;1.03;;
12165;SDS011;6146;48.128;11.476;2023-12-20T08:47:49;1.20;;;1.10;;
12165;SDS011;6146;48.128;11.476;2023-12-20T08:50:15;1.00;;;1.00;;
12165;SDS011;6146;48.128;11.476;2023-12-20T08:52:40;1.13;;;1.10;;
12165;SDS011;6146;48.128;11.476;2023-12-20T08:55:07;1.10;;;1.00;;
12165;SDS011;6146;48.128;11.476;2023-12-20T08:57:33;1.10;;;1.00;;
12165;SDS011;6146;48.128;11.476;2023-12-20T08:59:58;1.10;;;1.00;;
12165;SDS011;6146;48.128;11.476;2023-12-20T09:02:24;2.43;;;1.17;;
12165;SDS011;6146;48.128;11.476;2023-12-20T09:04:49;0.90;;;0.90;;
12165;SDS011;6146;48.128;11.476;2023-12-20T09:07:24;1.93;;;1.10;;
12165;SDS011;6146;48.128;11.476;2023-12-20T09:09:51;0.90;;;0.90;;
12165;SDS011;6146;48.128;11.476;2023-12-20T09:12:18;0.80;;;0.80;;
12165;SDS011;6146;48.128;11.476;2023-12-20T09:14:44;1.20;;;1.10;;
12165;SDS011;6146;48.128;11.476;2023-12-20T09:17:10;1.20;;;1.10;;
12165;SDS011;6146;48.128;11.476;2023-12-20T09:19:37;0.83;;;0.83;;
12165;SDS011;6146;48.128;11.476;2023-12-20T09:22:03;1.20;;;1.00;;
12165;SDS011;6146;48.128;11.476;2023-12-20T09:24:30;1.20;;;1.10;;
12165;SDS011;6146;48.128;11.476;2023-12-20T09:26:55;1.40;;;1.10;;
12165;SDS011;6146;48.128;11.476;2023-12-20T09:29:21;0.90;;;0.90;;
12165;SDS011;6146;48.128;11.476;2023-12-20T09:31:46;1.17;;;1.07;;
12165;SDS011;6146;48.128;11.476;2023-12-20T09:34:14;0.90;;;0.90;;
12165;SDS011;6146;48.128;11.476;2023-12-20T09:36:40;1.20;;;1.10;;
12165;SDS011;6146;48.128;11.476;2023-12-20T09:39:11;0.80;;;0.80;;
12165;SDS011;6146;48.128;11.476;2023-12-20T09:41:38;1.47;;;0.80;;
12165;SDS011;6146;48.128;11.476;2023-12-20T09:44:11;1.80;;;1.20;;
12165;SDS011;6146;48.128;11.476;2023-12-20T09:46:39;1.17;;;0.90;;
12165;SDS011;6146;48.128;11.476;2023-12-20T09:49:08;1.17;;;1.07;;
12165;SDS011;6146;48.128;11.476;2023-12-20T09:51:34;1.77;;;1.13;;
12165;SDS011;6146;48.128;11.476;2023-12-20T09:54:01;1.20;;;1.10;;
12165;SDS011;6146;48.128;11.476;2023-12-20T09:56:29;1.53;;;1.40;;
12165;SDS011;6146;48.128;11.476;2023-12-20T09:58:55;1.20;;;1.10;;
12165;SDS011;6146;48.128;11.476;2023-12-20T10:01:21;1.07;;;1.00;;
12165;SDS011;6146;48.128;11.476;2023-12-20T10:03:48;1.37;;;1.27;;
12165;SDS011;6146;48.128;11.476;2023-12-20T10:06:16;1.40;;;1.30;;
12165;SDS011;6146;48.128;11.476;2023-12-20T10:08:42;2.60;;;1.23;;
12165;SDS011;6146;48.128;11.476;2023-12-20T10:11:08;2.17;;;1.17;;
12165;SDS011;6146;48.128;11.476;2023-12-20T10:13:34;1.57;;;1.23;;
12165;SDS011;6146;48.128;11.476;2023-12-20T10:16:05;1.40;;;1.30;;
12165;SDS011;6146;48.128;11.476;2023-12-20T10:18:32;1.27;;;1.17;;
12165;SDS011;6146;48.128;11.476;2023-12-20T10:20:58;2.03;;;1.40;;
12165;SDS011;6146;48.128;11.476;2023-12-20T10:23:23;2.83;;;1.30;;
12165;SDS011;6146;48.128;11.476;2023-12-20T10:25:59;1.10;;;1.00;;
12165;SDS011;6146;48.128;11.476;2023-12-20T10:28:25;2.17;;;1.23;;
12165;SDS011;6146;48.128;11.476;2023-12-20T10:30:54;1.43;;;1.20;;
12165;SDS011;6146;48.128;11.476;2023-12-20T10:33:26;2.20;;;1.47;;
12165;SDS011;6146;48.128;11.476;2023-12-20T10:35:53;1.67;;;1.30;;
12165;SDS011;6146;48.128;11.476;2023-12-20T10:38:20;1.10;;;1.00;;
12165;SDS011;6146;48.128;11.476;2023-12-20T10:40:45;1.33;;;1.23;;
12165;SDS011;6146;48.128;11.476;2023-12-20T10:43:11;2.20;;;1.23;;
12165;SDS011;6146;48.128;11.476;2023-12-20T10:45:38;1.77;;;1.37;;
12165;SDS011;6146;48.128;11.476;2023-12-20T10:48:03;1.73;;;1.60;;
12165;SDS011;6146;48.128;11.476;2023-12-20T10:50:30;1.70;;;1.30;;
12165;SDS011;6146;48.128;11.476;2023-12-20T10:52:57;1.60;;;1.17;;
12165;SDS011;6146;48.128;11.476;2023-12-20T10:55:23;1.77;;;1.20;;
12165;SDS011;6146;48.128;11.476;2023-12-20T10:58:23;1.93;;;1.30;;
12165;SDS011;6146;48.128;11.476;2023-12-20T11:00:43;1.37;;;1.17;;
12165;SDS011;6146;48.128;11.476;2023-12-20T11:03:11;1.40;;;1.30;;
12165;SDS011;6146;48.128;11.476;2023-12-20T11:10:55;2.07;;;1.40;;
12165;SDS011;6146;48.128;11.476;2023-12-20T11:13:32;2.60;;;2.40;;
12165;SDS011;6146;48.128;11.476;2023-12-20T11:15:59;3.83;;;2.10;;
12165;SDS011;6146;48.128;11.476;2023-12-20T11:18:28;3.17;;;2.87;;
12165;SDS011;6146;48.128;11.476;2023-12-20T11:21:01;8.83;;;6.17;;
12165;SDS011;6146;48.128;11.476;2023-12-20T11:23:29;2.67;;;2.30;;
12165;SDS011;6146;48.128;11.476;2023-12-20T11:25:55;3.60;;;1.80;;
12165;SDS011;6146;48.128;11.476;2023-12-20T11:28:25;3.60;;;2.60;;
12165;SDS011;6146;48.128;11.476;2023-12-20T11:30:52;2.73;;;2.37;;
12165;SDS011;6146;48.128;11.476;2023-12-20T11:33:26;3.47;;;3.17;;
12165;SDS011;6146;48.128;11.476;2023-12-20T11:35:55;2.27;;;1.97;;
12165;SDS011;6146;48.128;11.476;2023-12-20T11:38:21;3.33;;;2.63;;
12165;SDS011;6146;48.128;11.476;2023-12-20T11:40:48;5.17;;;4.50;;
12165;SDS011;6146;48.128;11.476;2023-12-20T11:43:30;3.07;;;2.77;;
12165;SDS011;6146;48.128;11.476;2023-12-20T11:46:03;2.80;;;2.57;;
12165;SDS011;6146;48.128;11.476;2023-12-20T11:48:30;2.97;;;2.40;;
12165;SDS011;6146;48.128;11.476;2023-12-20T11:50:57;2.50;;;2.30;;
12165;SDS011;6146;48.128;11.476;2023-12-20T11:53:23;1.87;;;1.73;;
12165;SDS011;6146;48.128;11.476;2023-12-20T11:55:49;1.93;;;1.80;;
12165;SDS011;6146;48.128;11.476;2023-12-20T11:58:14;5.47;;;3.90;;
12165;SDS011;6146;48.128;11.476;2023-12-20T12:00:41;6.50;;;4.77;;
12165;SDS011;6146;48.128;11.476;2023-12-20T12:03:08;2.23;;;1.77;;
12165;SDS011;6146;48.128;11.476;2023-12-20T12:05:34;2.53;;;1.97;;
12165;SDS011;6146;48.128;11.476;2023-12-20T12:08:03;2.90;;;2.47;;
12165;SDS011;6146;48.128;11.476;2023-12-20T12:10:29;3.43;;;2.50;;
12165;SDS011;6146;48.128;11.476;2023-12-20T12:12:55;1.97;;;1.77;;
12165;SDS011;6146;48.128;11.476;2023-12-20T12:15:21;1.80;;;1.53;;
12165;SDS011;6146;48.128;11.476;2023-12-20T12:17:53;1.67;;;1.57;;
12165;SDS011;6146;48.128;11.476;2023-12-20T12:20:20;1.70;;;1.60;;
12165;SDS011;6146;48.128;11.476;2023-12-20T12:22:56;1.63;;;1.50;;
12165;SDS011;6146;48.128;11.476;2023-12-20T12:25:23;1.67;;;1.57;;
12165;SDS011;6146;48.128;11.476;2023-12-20T12:27:48;1.60;;;1.50;;
12165;SDS011;6146;48.128;11.476;2023-12-20T12:30:16;1.93;;;1.60;;
12165;SDS011;6146;48.128;11.476;2023-12-20T12:32:43;4.40;;;3.80;;
12165;SDS011;6146;48.128;11.476;2023-12-20T12:35:09;2.50;;;2.27;;
12165;SDS011;6146;48.128;11.476;2023-12-20T12:37:35;2.27;;;1.80;;
12165;SDS011;6146;48.128;11.476;2023-12-20T12:40:04;2.87;;;2.07;;
12165;SDS011;6146;48.128;11.476;2023-12-20T12:42:31;3.87;;;2.67;;
12165;SDS011;6146;48.128;11.476;2023-12-20T12:44:56;2.00;;;1.80;;
12165;SDS011;6146;48.128;11.476;2023-12-20T12:47:22;2.80;;;2.40;;
12165;SDS011;6146;48.128;11.476;2023-12-20T12:49:49;4.50;;;3.40;;
12165;SDS011;6146;48.128;11.476;2023-12-20T12:52:16;5.97;;;4.20;;
12165;SDS011;6146;48.128;11.476;2023-12-20T12:54:42;4.23;;;3.33;;
12165;SDS011;6146;48.128;11.476;2023-12-20T12:57:09;3.03;;;2.60;;
12165;SDS011;6146;48.128;11.476;2023-12-20T12:59:35;3.17;;;2.83;;
12165;SDS011;6146;48.128;11.476;2023-12-20T13:02:01;1.93;;;1.80;;
12165;SDS011;6146;48.128;11.476;2023-12-20T13:04:27;2.03;;;1.70;;
12165;SDS011;6146;48.128;11.476;2023-12-20T13:06:52;3.40;;;1.90;;
12165;SDS011;6146;48.128;11.476;2023-12-20T13:09:18;2.20;;;2.00;;
12165;SDS011;6146;48.128;11.476;2023-12-20T13:11:44;3.87;;;2.30;;
12165;SDS011;6146;48.128;11.476;2023-12-20T13:14:10;3.90;;;2.20;;
12165;SDS011;6146;48.128;11.476;2023-12-20T13:16:40;2.80;;;2.10;;
12165;SDS011;6146;48.128;11.476;2023-12-20T13:19:06;4.13;;;2.33;;
12165;SDS011;6146;48.128;11.476;2023-12-20T13:21:32;2.33;;;2.00;;
12165;SDS011;6146;48.128;11.476;2023-12-20T13:23:58;1.97;;;1.77;;
12165;SDS011;6146;48.128;11.476;2023-12-20T13:26:23;3.87;;;1.70;;
12165;SDS011;6146;48.128;11.476;2023-12-20T13:28:49;2.40;;;1.83;;
12165;SDS011;6146;48.128;11.476;2023-12-20T13:31:14;2.43;;;1.97;;
12165;SDS011;6146;48.128;11.476;2023-12-20T13:33:40;3.33;;;1.90;;
12165;SDS011;6146;48.128;11.476;2023-12-20T13:36:05;2.33;;;2.00;;
12165;SDS011;6146;48.128;11.476;2023-12-20T13:38:31;2.40;;;2.20;;
12165;SDS011;6146;48.128;11.476;2023-12-20T13:40:57;4.63;;;2.40;;
12165;SDS011;6146;48.128;11.476;2023-12-20T13:43:24;3.87;;;2.23;;
12165;SDS011;6146;48.128;11.476;2023-12-20T13:45:50;3.73;;;2.10;;
12165;SDS011;6146;48.128;11.476;2023-12-20T13:48:16;3.50;;;1.80;;
12165;SDS011;6146;48.128;11.476;2023-12-20T13:50:43;2.50;;;2.10;;
12165;SDS011;6146;48.128;11.476;2023-12-20T13:53:09;3.43;;;2.10;;
12165;SDS011;6146;48.128;11.476;2023-12-20T13:55:34;2.50;;;2.00;;
12165;SDS011;6146;48.128;11.476;2023-12-20T13:58:00;4.30;;;2.40;;
12165;SDS011;6146;48.128;11.476;2023-12-20T14:00:25;4.03;;;2.10;;
12165;SDS011;6146;48.128;11.476;2023-12-20T14:02:51;3.30;;;2.20;;
12165;SDS011;6146;48.128;11.476;2023-12-20T14:05:16;4.47;;;2.03;;
12165;SDS011;6146;48.128;11.476;2023-12-20T14:07:45;2.50;;;2.03;;
12165;SDS011;6146;48.128;11.476;2023-12-20T14:10:11;2.57;;;2.13;;
12165;SDS011;6146;48.128;11.476;2023-12-20T14:12:38;5.40;;;2.20;;
12165;SDS011;6146;48.128;11.476;2023-12-20T14:15:04;3.23;;;2.17;;
12165;SDS011;6146;48.128;11.476;2023-12-20T14:17:35;4.17;;;2.60;;
12165;SDS011;6146;48.128;11.476;2023-12-20T14:20:07;5.57;;;2.10;;
12165;SDS011;6146;48.128;11.476;2023-12-20T14:22:34;2.87;;;2.40;;
12165;SDS011;6146;48.128;11.476;2023-12-20T14:25:00;2.70;;;1.83;;
12165;SDS011;6146;48.128;11.476;2023-12-20T14:27:26;3.00;;;2.30;;
12165;SDS011;6146;48.128;11.476;2023-12-20T14:29:55;3.17;;;2.40;;
12165;SDS011;6146;48.128;11.476;2023-12-20T14:32:20;4.13;;;2.50;;
12165;SDS011;6146;48.128;11.476;2023-12-20T14:34:46;2.80;;;2.30;;
12165;SDS011;6146;48.128;11.476;2023-12-20T14:37:12;3.20;;;2.00;;
12165;SDS011;6146;48.128;11.476;2023-12-20T14:39:37;2.90;;;2.20;;
12165;SDS011;6146;48.128;11.476;2023-12-20T14:42:09;5.33;;;2.30;;
12165;SDS011;6146;48.128;11.476;2023-12-20T14:44:38;3.87;;;2.30;;
12165;SDS011;6146;48.128;11.476;2023-12-20T14:47:07;2.87;;;2.10;;